Time;durP1;ratioP1;P1;durP2;ratioP2;P2;SDS_P1;SDS_P2;PMS_P1;PMS_P2;Temp;Humidity;BMP_temperature;BMP_pressure;BME280_temperature;BME280_humidity;BME280_pressure;Samples;Min_cycle;Max_cycle;Signal;HPM_P1;HPM_P2
2021/08/14 00:00:28;;;;;;;10.18;5.85;;;;;;;16.31;75.86;100237.47;4991213;28;20031;-72
2021/08/14 00:02:54;;;;;;;13.55;5.97;;;;;;;16.24;76.29;100228.22;4990756;28;20045;-71
2021/08/14 00:05:19;;;;;;;10.13;5.60;;;;;;;16.19;76.16;100227.63;4990354;28;20030;-71
2021/08/14 00:07:44;;;;;;;14.63;7.47;;;;;;;16.20;76.09;100228.53;4990222;28;20041;-71
2021/08/14 00:10:10;;;;;;;10.20;5.53;;;;;;;16.20;75.30;100218.72;4991215;28;20042;-72
2021/08/14 00:12:35;;;;;;;14.35;5.47;;;;;;;16.17;75.87;100226.91;4991269;28;20030;-71
2021/08/14 00:15:01;;;;;;;8.90;5.55;;;;;;;16.13;75.26;100228.06;4990558;28;20038;-72
2021/08/14 00:17:26;;;;;;;10.43;5.03;;;;;;;16.13;75.70;100236.03;4989849;28;20033;-72
2021/08/14 00:19:51;;;;;;;13.23;6.07;;;;;;;16.13;75.16;100237.84;4990249;28;20092;-71
2021/08/14 00:22:17;;;;;;;15.18;5.10;;;;;;;16.12;75.03;100230.81;4989855;28;20043;-72
2021/08/14 00:24:42;;;;;;;8.65;5.30;;;;;;;16.07;74.95;100234.63;4997938;28;20041;-71
2021/08/14 00:27:07;;;;;;;17.80;5.00;;;;;;;16.03;75.60;100238.44;5009389;28;20041;-72
2021/08/14 00:29:33;;;;;;;9.95;5.82;;;;;;;16.00;75.42;100235.13;5009669;28;20553;-72
2021/08/14 00:31:58;;;;;;;10.00;5.57;;;;;;;15.97;75.83;100241.47;5008061;28;20397;-72
2021/08/14 00:34:23;;;;;;;8.93;4.85;;;;;;;15.91;75.48;100239.22;5007864;28;20045;-72
2021/08/14 00:36:49;;;;;;;10.20;5.47;;;;;;;15.86;75.91;100238.66;5009206;28;20037;-72
2021/08/14 00:39:14;;;;;;;11.15;5.72;;;;;;;15.85;75.79;100239.59;5009404;28;20084;-71
2021/08/14 00:41:39;;;;;;;11.07;5.82;;;;;;;15.86;75.94;100241.31;5010058;28;20167;-72
2021/08/14 00:44:05;;;;;;;13.60;5.45;;;;;;;15.87;75.90;100243.03;5009617;28;20497;-72
2021/08/14 00:46:32;;;;;;;8.02;5.22;;;;;;;15.87;76.00;100237.72;5008831;28;20038;-69
2021/08/14 00:48:59;;;;;;;6.65;4.50;;;;;;;15.85;75.64;100243.13;5008254;28;20038;-71
2021/08/14 00:51:24;;;;;;;11.90;5.88;;;;;;;15.82;75.89;100234.50;5009513;28;20040;-71
2021/08/14 00:53:50;;;;;;;9.75;6.03;;;;;;;15.78;75.99;100233.84;5009415;28;20575;-71
2021/08/14 00:56:19;;;;;;;9.23;5.90;;;;;;;15.77;76.30;100241.91;5009122;28;20053;-71
2021/08/14 00:58:44;;;;;;;8.05;5.40;;;;;;;15.76;76.10;100232.25;5009177;28;20065;-71
2021/08/14 01:01:10;;;;;;;10.60;6.10;;;;;;;15.77;76.41;100223.31;4984176;28;20078;-71
2021/08/14 01:03:36;;;;;;;10.00;5.10;;;;;;;15.75;76.35;100228.72;5026437;28;20124;-71
2021/08/14 01:06:02;;;;;;;7.68;5.68;;;;;;;15.70;76.68;100220.16;5028898;28;20502;-71
2021/08/14 01:08:27;;;;;;;17.50;8.52;;;;;;;15.65;77.26;100222.22;5027895;28;20129;-70
2021/08/14 01:10:53;;;;;;;14.10;6.35;;;;;;;15.62;76.91;100220.63;5028847;28;20037;-72
2021/08/14 01:13:19;;;;;;;10.15;5.60;;;;;;;15.63;76.93;100211.72;5029013;28;20038;-72
2021/08/14 01:15:49;;;;;;;16.98;7.20;;;;;;;15.66;76.94;100213.31;5029022;28;20380;-72
2021/08/14 01:18:16;;;;;;;9.52;5.28;;;;;;;15.65;76.80;100206.28;5034732;28;20034;-71
2021/08/14 01:20:42;;;;;;;13.40;5.78;;;;;;;15.65;76.69;100204.50;5035237;28;20034;-70
2021/08/14 01:23:09;;;;;;;13.30;7.13;;;;;;;15.64;76.56;100208.09;5035598;28;20030;-71
2021/08/14 01:25:34;;;;;;;11.07;7.55;;;;;;;15.55;77.20;100208.66;5001279;28;20036;-71
2021/08/14 01:27:59;;;;;;;12.63;7.20;;;;;;;15.50;77.36;100202.78;5014715;28;20041;-72
2021/08/14 01:30:25;;;;;;;12.38;7.20;;;;;;;15.50;77.56;100212.56;5015348;28;20061;-71
2021/08/14 01:32:51;;;;;;;15.23;6.43;;;;;;;15.51;77.38;100209.84;5015284;28;20041;-69
2021/08/14 01:35:16;;;;;;;11.02;6.75;;;;;;;15.51;77.53;100203.69;5015495;28;20037;-71
2021/08/14 01:37:41;;;;;;;12.48;6.05;;;;;;;15.54;77.21;100208.78;5014609;28;20052;-71
2021/08/14 01:40:07;;;;;;;11.85;7.05;;;;;;;15.56;77.27;100205.09;5016009;28;20030;-72
2021/08/14 01:42:33;;;;;;;9.15;6.15;;;;;;;15.57;77.12;100196.16;5015342;28;20092;-72
2021/08/14 01:44:58;;;;;;;6.90;5.30;;;;;;;15.57;77.07;100198.81;5015239;28;20382;-71
2021/08/14 01:47:24;;;;;;;11.07;6.05;;;;;;;15.58;77.24;100195.22;5014116;28;20059;-71
2021/08/14 01:49:49;;;;;;;9.75;6.07;;;;;;;15.55;76.99;100192.72;5015264;28;20121;-71
2021/08/14 01:52:16;;;;;;;11.13;6.10;;;;;;;15.54;77.31;100185.72;5014574;28;20038;-71
2021/08/14 01:54:42;;;;;;;17.80;7.20;;;;;;;15.54;77.18;100176.91;5015299;28;20037;-71
2021/08/14 01:57:08;;;;;;;13.07;6.00;;;;;;;15.53;77.08;100178.72;5014977;28;20034;-71
2021/08/14 01:59:35;;;;;;;10.50;7.22;;;;;;;15.51;77.23;100187.72;5014637;28;20443;-71
2021/08/14 02:02:02;;;;;;;9.57;6.60;;;;;;;15.46;77.18;100183.56;5014967;28;20997;-71
2021/08/14 02:04:27;;;;;;;9.50;6.18;;;;;;;15.42;77.58;100183.84;5015136;28;20044;-71
2021/08/14 02:06:53;;;;;;;10.30;6.25;;;;;;;15.37;77.47;100189.44;5013817;28;20029;-70
2021/08/14 02:09:18;;;;;;;11.60;6.90;;;;;;;15.35;77.91;100190.47;5014897;28;20096;-71
2021/08/14 02:11:44;;;;;;;10.63;6.72;;;;;;;15.33;77.90;100187.91;5013470;28;20504;-71
2021/08/14 02:14:11;;;;;;;9.52;6.72;;;;;;;15.32;78.11;100182.72;5015344;28;20054;-70
2021/08/14 02:16:37;;;;;;;11.13;7.15;;;;;;;15.33;78.20;100184.41;5014601;28;20087;-70
2021/08/14 02:19:03;;;;;;;10.68;8.10;;;;;;;15.29;78.34;100181.09;5015280;28;20425;-71
2021/08/14 02:21:28;;;;;;;16.80;9.07;;;;;;;15.28;78.18;100179.38;5016331;28;20057;-71
2021/08/14 02:23:54;;;;;;;12.52;8.50;;;;;;;15.29;78.06;100182.91;5011770;28;20494;-71
2021/08/14 02:26:20;;;;;;;13.38;7.60;;;;;;;15.28;78.06;100174.06;4994726;28;20038;-70
2021/08/14 02:28:46;;;;;;;16.42;8.18;;;;;;;15.25;78.12;100179.56;4992092;28;20125;-69
2021/08/14 02:31:11;;;;;;;14.10;8.32;;;;;;;15.22;78.28;100180.63;4992157;28;20053;-71
2021/08/14 02:33:37;;;;;;;11.60;7.78;;;;;;;15.21;78.23;100178.94;4992755;28;20041;-70
2021/08/14 02:36:04;;;;;;;13.43;8.35;;;;;;;15.22;78.06;100175.31;4992062;28;20055;-71
2021/08/14 02:38:29;;;;;;;13.68;7.78;;;;;;;15.22;78.19;100169.16;4991647;28;20025;-69
2021/08/14 02:40:55;;;;;;;11.15;7.65;;;;;;;15.21;78.07;100170.97;4992142;28;20042;-71
2021/08/14 02:43:21;;;;;;;15.75;8.00;;;;;;;15.23;77.69;100168.19;4992523;28;20030;-71
2021/08/14 02:45:47;;;;;;;10.73;7.32;;;;;;;15.21;77.81;100168.31;4991858;28;20038;-71
2021/08/14 02:48:13;;;;;;;12.73;6.88;;;;;;;15.24;77.87;100168.09;4991211;28;20106;-71
2021/08/14 02:50:42;;;;;;;14.20;7.80;;;;;;;15.26;77.67;100173.34;4992249;28;20495;-71
2021/08/14 02:53:07;;;;;;;13.18;8.20;;;;;;;15.24;77.76;100173.41;4996495;28;20093;-70
2021/08/14 02:55:33;;;;;;;15.20;8.48;;;;;;;15.25;77.84;100166.28;4991448;28;20034;-71
2021/08/14 02:57:58;;;;;;;11.52;6.43;;;;;;;15.22;77.56;100169.16;4991041;28;20034;-71
2021/08/14 03:00:24;;;;;;;9.82;6.78;;;;;;;15.25;77.80;100164.50;5007260;28;20030;-71
2021/08/14 03:02:49;;;;;;;9.75;6.80;;;;;;;15.23;77.81;100168.19;5011397;28;20125;-71
2021/08/14 03:05:14;;;;;;;10.82;7.82;;;;;;;15.21;77.75;100163.00;5026349;28;20026;-69
2021/08/14 03:07:40;;;;;;;10.13;6.93;;;;;;;15.27;77.72;100160.91;5010722;28;20069;-71
2021/08/14 03:10:05;;;;;;;11.25;6.60;;;;;;;15.24;77.59;100156.63;5011388;28;20383;-71
2021/08/14 03:12:31;;;;;;;11.38;7.25;;;;;;;15.24;77.61;100161.94;5011652;28;20092;-70
2021/08/14 03:14:56;;;;;;;8.88;6.38;;;;;;;15.21;77.76;100157.69;5011265;28;20050;-71
2021/08/14 03:17:22;;;;;;;12.38;6.88;;;;;;;15.18;77.67;100165.81;5010374;28;20042;-71
2021/08/14 03:19:47;;;;;;;12.15;6.57;;;;;;;15.18;77.82;100164.97;5011184;28;20049;-71
2021/08/14 03:22:12;;;;;;;11.27;6.55;;;;;;;15.22;78.07;100158.53;5009566;28;20498;-71
2021/08/14 03:24:38;;;;;;;11.52;6.40;;;;;;;15.21;77.88;100157.69;5002138;28;20128;-71
2021/08/14 03:27:04;;;;;;;11.50;7.25;;;;;;;15.24;77.56;100165.44;4990644;28;20549;-71
2021/08/14 03:29:30;;;;;;;12.48;6.55;;;;;;;15.24;77.55;100159.28;4991181;28;20031;-72
2021/08/14 03:31:55;;;;;;;22.65;7.20;;;;;;;15.22;77.66;100161.19;4991258;28;20490;-68
2021/08/14 03:34:20;;;;;;;11.70;7.20;;;;;;;15.18;77.70;100152.53;4993750;28;20033;-71
2021/08/14 03:36:46;;;;;;;12.73;6.82;;;;;;;15.10;77.91;100149.50;4989782;28;20042;-71
2021/08/14 03:39:11;;;;;;;16.55;7.90;;;;;;;15.09;78.14;100158.44;4990263;28;20033;-71
2021/08/14 03:41:36;;;;;;;9.75;7.60;;;;;;;15.06;77.89;100163.91;4991477;28;20537;-71
2021/08/14 03:44:03;;;;;;;11.23;7.78;;;;;;;15.06;78.60;100149.78;4990855;28;20098;-71
2021/08/14 03:46:29;;;;;;;16.52;8.00;;;;;;;15.06;78.03;100149.78;4990081;28;20395;-71
2021/08/14 03:48:54;;;;;;;15.82;8.07;;;;;;;15.06;77.92;100158.59;4990794;28;20081;-71
2021/08/14 03:51:19;;;;;;;12.35;7.85;;;;;;;15.01;78.16;100155.38;4990853;28;20026;-68
2021/08/14 03:53:45;;;;;;;12.90;8.15;;;;;;;14.99;78.03;100152.84;4990608;28;20066;-71
2021/08/14 03:56:10;;;;;;;14.02;8.27;;;;;;;14.93;77.83;100158.50;4991130;28;20027;-72
2021/08/14 03:58:35;;;;;;;16.60;7.93;;;;;;;14.88;78.17;100154.44;4989819;28;20061;-72
2021/08/14 04:01:02;;;;;;;9.95;6.72;;;;;;;14.85;78.43;100152.84;4990757;28;20528;-71
2021/08/14 04:03:28;;;;;;;15.75;7.22;;;;;;;14.85;78.48;100154.63;4990507;28;20061;-72
2021/08/14 04:05:53;;;;;;;14.70;6.63;;;;;;;14.87;78.11;100160.72;4989993;28;20058;-72
2021/08/14 04:08:19;;;;;;;9.52;6.05;;;;;;;14.88;78.47;100163.25;4991758;28;20042;-71
2021/08/14 04:10:45;;;;;;;12.90;7.30;;;;;;;14.89;78.45;100164.09;4991352;28;20080;-71
2021/08/14 04:13:10;;;;;;;10.23;7.25;;;;;;;14.86;78.61;100159.84;4992073;28;20030;-70
2021/08/14 04:15:35;;;;;;;12.82;7.40;;;;;;;14.83;78.57;100162.69;4991257;28;20038;-72
2021/08/14 04:18:01;;;;;;;11.18;7.60;;;;;;;14.85;78.21;100152.84;4989989;28;20053;-72
2021/08/14 04:20:26;;;;;;;13.10;6.97;;;;;;;14.86;77.98;100153.69;4991254;28;20460;-72
2021/08/14 04:22:51;;;;;;;12.77;7.72;;;;;;;14.80;78.02;100153.09;4990971;28;20487;-73
2021/08/14 04:25:17;;;;;;;12.65;7.20;;;;;;;14.75;78.51;100154.34;5018255;28;20517;-71
2021/08/14 04:27:42;;;;;;;12.57;8.07;;;;;;;14.74;78.67;100158.81;5007937;28;20029;-72
2021/08/14 04:30:08;;;;;;;14.25;7.57;;;;;;;14.77;78.55;100161.28;5010368;28;20038;-71
2021/08/14 04:32:35;;;;;;;11.48;6.18;;;;;;;14.82;78.15;100161.00;5009612;28;20045;-72
2021/08/14 04:35:12;;;;;;;15.65;7.70;;;;;;;14.80;78.50;100157.56;5009247;28;20620;-70
2021/08/14 04:37:38;;;;;;;12.50;6.25;;;;;;;14.81;78.49;100161.91;4991332;28;20044;-71
2021/08/14 04:40:06;;;;;;;16.63;8.60;;;;;;;14.84;78.31;100171.50;4990191;28;20505;-71
2021/08/14 04:42:32;;;;;;;10.57;7.95;;;;;;;14.86;78.43;100165.16;4989983;28;20053;-72
2021/08/14 04:44:57;;;;;;;13.07;6.45;;;;;;;14.90;78.16;100168.47;4990498;28;20450;-71
2021/08/14 04:47:22;;;;;;;11.68;6.78;;;;;;;14.92;78.17;100170.09;4989072;28;20553;-72
2021/08/14 04:49:48;;;;;;;12.23;6.93;;;;;;;14.94;77.80;100168.22;5006633;28;20383;-72
2021/08/14 04:52:13;;;;;;;12.75;6.93;;;;;;;14.93;77.94;100169.13;5008793;28;20436;-71
2021/08/14 04:54:39;;;;;;;9.13;7.35;;;;;;;14.91;77.98;100171.03;5008598;28;20489;-72
2021/08/14 04:57:04;;;;;;;10.52;7.15;;;;;;;14.94;77.89;100167.31;5008732;28;20022;-71
2021/08/14 04:59:30;;;;;;;14.98;7.47;;;;;;;14.93;78.00;100165.63;5009357;28;20091;-72
2021/08/14 05:01:55;;;;;;;10.85;6.20;;;;;;;14.96;77.62;100165.44;5027647;28;20034;-71
2021/08/14 05:04:23;;;;;;;10.15;7.25;;;;;;;14.97;77.67;100167.16;5030174;28;20044;-71
2021/08/14 05:06:49;;;;;;;10.00;6.05;;;;;;;14.97;77.57;100165.34;5029140;28;20041;-71
2021/08/14 05:09:14;;;;;;;10.82;6.53;;;;;;;14.94;77.70;100164.69;5028929;28;20515;-70
2021/08/14 05:11:39;;;;;;;13.93;6.72;;;;;;;14.93;77.80;100161.16;5029668;28;20029;-71
2021/08/14 05:14:05;;;;;;;14.13;6.72;;;;;;;14.91;77.76;100162.22;5028883;28;20064;-72
2021/08/14 05:16:31;;;;;;;14.18;7.35;;;;;;;14.91;77.78;100162.22;5028198;28;20034;-71
2021/08/14 05:18:57;;;;;;;13.77;7.03;;;;;;;14.95;77.75;100164.59;5028495;28;20041;-71
2021/08/14 05:21:22;;;;;;;10.60;7.03;;;;;;;15.00;77.27;100164.31;5028520;28;20468;-70
2021/08/14 05:23:47;;;;;;;13.75;7.35;;;;;;;15.02;78.07;100168.59;5024576;28;20053;-72
2021/08/14 05:26:13;;;;;;;11.77;6.65;;;;;;;15.05;77.40;100164.88;5008851;28;20045;-72
2021/08/14 05:28:38;;;;;;;10.85;6.82;;;;;;;15.14;77.15;100166.97;5009360;28;20175;-71
2021/08/14 05:31:04;;;;;;;15.85;5.93;;;;;;;15.23;76.69;100171.72;5010649;28;20030;-71
2021/08/14 05:33:29;;;;;;;10.93;5.88;;;;;;;15.31;76.62;100160.63;5009915;28;20022;-73
2021/08/14 05:35:54;;;;;;;10.38;6.22;;;;;;;15.35;76.64;100161.25;5008839;28;20050;-70
2021/08/14 05:38:20;;;;;;;11.93;6.13;;;;;;;15.44;76.51;100160.69;5008156;28;20141;-70
2021/08/14 05:40:45;;;;;;;12.88;5.97;;;;;;;15.52;75.99;100166.34;5017625;28;20049;-70
2021/08/14 05:43:11;;;;;;;19.67;6.80;;;;;;;15.59;75.96;100173.00;5029358;28;20457;-69
2021/08/14 05:45:36;;;;;;;15.98;6.72;;;;;;;15.64;75.77;100167.38;5028577;28;20045;-71
2021/08/14 05:48:05;;;;;;;11.98;7.28;;;;;;;15.68;76.09;100164.44;5028010;28;20128;-71
2021/08/14 05:50:31;;;;;;;10.13;6.07;;;;;;;15.75;76.14;100164.06;5029537;28;20104;-70
2021/08/14 05:52:57;;;;;;;13.18;6.10;;;;;;;15.86;76.06;100154.44;5028630;28;20661;-71
2021/08/14 05:55:23;;;;;;;8.25;5.68;;;;;;;15.96;75.53;100154.69;5028602;28;20080;-71
2021/08/14 05:57:49;;;;;;;14.48;6.07;;;;;;;16.09;74.24;100152.06;5027818;28;20068;-70
2021/08/14 06:00:15;;;;;;;13.20;5.90;;;;;;;16.24;71.74;100143.09;5028292;28;20542;-71
2021/08/14 06:02:41;;;;;;;8.05;5.15;;;;;;;16.37;71.91;100148.44;5030447;28;20053;-71
2021/08/14 06:05:07;;;;;;;17.95;5.80;;;;;;;16.50;71.35;100149.28;5032035;28;20057;-71
2021/08/14 06:07:32;;;;;;;10.50;5.15;;;;;;;16.62;70.50;100144.09;5031368;28;20061;-71
2021/08/14 06:09:57;;;;;;;8.90;6.05;;;;;;;16.72;70.71;100140.69;5032722;28;20053;-71
2021/08/14 06:12:23;;;;;;;9.20;5.15;;;;;;;16.84;69.90;100144.34;5032179;28;20033;-70
2021/08/14 06:14:49;;;;;;;8.77;4.80;;;;;;;16.93;68.63;100146.38;5032020;28;20055;-70
2021/08/14 06:17:14;;;;;;;19.02;5.72;;;;;;;16.97;68.34;100144.34;5031253;28;20090;-71
2021/08/14 06:19:40;;;;;;;10.23;5.88;;;;;;;17.05;67.93;100144.63;5032420;28;20140;-71
2021/08/14 06:22:05;;;;;;;12.18;6.13;;;;;;;17.16;67.78;100147.41;5031466;28;20047;-70
2021/08/14 06:24:31;;;;;;;15.88;5.80;;;;;;;17.26;66.88;100144.94;5023587;28;20026;-71
2021/08/14 06:26:56;;;;;;;14.23;5.68;;;;;;;17.33;65.62;100146.22;5009687;28;20072;-70
2021/08/14 06:29:21;;;;;;;14.35;6.03;;;;;;;17.39;65.00;100150.25;5011399;28;20413;-71
2021/08/14 06:31:47;;;;;;;14.68;5.93;;;;;;;17.50;64.34;100160.13;5011559;28;20053;-70
2021/08/14 06:34:12;;;;;;;14.98;5.82;;;;;;;17.60;64.05;100159.38;5011964;28;20494;-70
2021/08/14 06:36:37;;;;;;;11.85;5.88;;;;;;;17.69;63.79;100154.31;5011536;28;20509;-70
2021/08/14 06:39:03;;;;;;;9.98;4.55;;;;;;;17.81;63.75;100162.28;5011713;28;20033;-71
2021/08/14 06:41:28;;;;;;;9.93;4.45;;;;;;;17.96;64.20;100168.31;5011848;28;20049;-71
2021/08/14 06:43:53;;;;;;;10.07;4.65;;;;;;;18.09;63.09;100164.72;5011596;28;20106;-71
2021/08/14 06:46:19;;;;;;;11.77;5.93;;;;;;;18.18;62.50;100156.03;5011181;28;20042;-71
2021/08/14 06:48:45;;;;;;;11.55;5.38;;;;;;;18.27;61.12;100162.53;5011494;28;20065;-71
2021/08/14 06:51:12;;;;;;;15.43;5.82;;;;;;;18.33;60.51;100154.88;5011989;28;20026;-72
2021/08/14 06:53:38;;;;;;;10.48;5.90;;;;;;;18.35;60.66;100165.47;5011516;28;20509;-72
2021/08/14 06:56:03;;;;;;;13.07;5.85;;;;;;;18.39;60.96;100162.44;5011333;28;20041;-72
2021/08/14 06:58:29;;;;;;;9.80;5.68;;;;;;;18.49;61.03;100170.59;5010702;28;20569;-72
2021/08/14 07:00:54;;;;;;;12.68;5.65;;;;;;;18.63;60.63;100172.19;5011471;28;20530;-72
2021/08/14 07:03:20;;;;;;;12.48;5.60;;;;;;;18.71;60.01;100169.81;5011345;28;20034;-72
2021/08/14 07:05:45;;;;;;;14.90;5.82;;;;;;;18.79;60.11;100167.44;5021948;28;20406;-71
2021/08/14 07:08:11;;;;;;;9.73;5.35;;;;;;;18.84;59.53;100170.59;5030647;28;20493;-72
2021/08/14 07:10:36;;;;;;;12.45;5.32;;;;;;;18.89;58.75;100159.53;5031070;28;20033;-69
2021/08/14 07:13:02;;;;;;;19.17;6.38;;;;;;;18.92;57.50;100170.00;5030491;28;20056;-71
2021/08/14 07:15:28;;;;;;;10.55;5.57;;;;;;;18.95;57.18;100160.88;5030315;28;20026;-69
2021/08/14 07:17:53;;;;;;;12.15;5.32;;;;;;;19.05;56.40;100159.19;5029834;28;20037;-70
2021/08/14 07:20:19;;;;;;;11.07;5.15;;;;;;;19.16;56.27;100161.88;5030416;28;20033;-71
2021/08/14 07:22:44;;;;;;;10.38;4.57;;;;;;;19.26;55.79;100153.97;5030725;28;20393;-71
2021/08/14 07:25:10;;;;;;;12.43;5.95;;;;;;;19.33;54.74;100147.16;5017350;28;20044;-71
2021/08/14 07:27:35;;;;;;;10.80;5.35;;;;;;;19.39;53.94;100135.97;5010039;28;20033;-73
2021/08/14 07:30:00;;;;;;;11.10;5.47;;;;;;;19.47;53.29;100148.75;5011155;28;20096;-73
2021/08/14 07:32:26;;;;;;;10.73;5.28;;;;;;;19.55;53.36;100151.63;5021683;28;20095;-72
2021/08/14 07:34:52;;;;;;;13.95;5.60;;;;;;;19.67;53.69;100149.81;5030385;28;20040;-71
2021/08/14 07:37:17;;;;;;;8.20;4.60;;;;;;;19.83;53.95;100150.25;5029925;28;20079;-71
2021/08/14 07:39:43;;;;;;;9.88;4.75;;;;;;;19.91;54.25;100150.50;5030210;28;20491;-71
2021/08/14 07:42:08;;;;;;;11.40;5.53;;;;;;;19.93;53.79;100145.00;5030654;28;20033;-70
2021/08/14 07:44:33;;;;;;;9.30;5.88;;;;;;;20.04;53.48;100139.63;5029977;28;20079;-71
2021/08/14 07:46:59;;;;;;;10.30;5.57;;;;;;;20.22;53.25;100144.41;5029182;28;20048;-70
2021/08/14 07:49:24;;;;;;;10.98;5.53;;;;;;;20.38;52.97;100144.84;5029896;28;20037;-70
2021/08/14 07:51:49;;;;;;;11.68;5.35;;;;;;;20.47;52.00;100140.50;5029664;28;20557;-72
2021/08/14 07:54:15;;;;;;;13.13;5.45;;;;;;;20.50;50.80;100137.56;5029772;28;20143;-70
2021/08/14 07:56:40;;;;;;;15.93;6.50;;;;;;;20.52;50.69;100138.28;5029783;28;20025;-72
2021/08/14 07:59:05;;;;;;;13.20;6.10;;;;;;;20.62;51.06;100133.88;5028572;28;20037;-74
2021/08/14 08:01:31;;;;;;;14.68;6.88;;;;;;;20.78;49.50;100134.25;5030540;28;20060;-71
2021/08/14 08:03:56;;;;;;;11.77;5.72;;;;;;;20.99;49.23;100131.56;5030203;28;20068;-72
2021/08/14 08:06:21;;;;;;;13.48;5.65;;;;;;;21.16;48.81;100131.88;5029516;28;20025;-72
2021/08/14 08:08:47;;;;;;;12.20;4.13;;;;;;;21.26;48.77;100129.25;5029643;28;20587;-71
2021/08/14 08:11:12;;;;;;;11.60;4.97;;;;;;;21.31;47.74;100127.84;5030117;28;20124;-71
2021/08/14 08:13:38;;;;;;;16.20;5.70;;;;;;;21.44;47.50;100130.34;5029912;28;20072;-71
2021/08/14 08:16:03;;;;;;;13.25;5.18;;;;;;;21.42;46.85;100135.00;5030401;28;20025;-70
2021/08/14 08:18:29;;;;;;;12.43;5.32;;;;;;;21.40;46.51;100140.47;5029119;28;20525;-70
2021/08/14 08:20:54;;;;;;;8.82;4.45;;;;;;;21.40;46.75;100136.94;5030091;28;20061;-72
2021/08/14 08:23:20;;;;;;;11.10;5.90;;;;;;;21.48;46.91;100138.94;5030093;28;20025;-71
2021/08/14 08:25:45;;;;;;;11.80;5.03;;;;;;;21.34;46.93;100132.97;5012074;28;20048;-71
2021/08/14 08:28:10;;;;;;;6.95;5.00;;;;;;;21.37;47.24;100132.69;5008928;28;20038;-72
2021/08/14 08:30:36;;;;;;;12.50;4.85;;;;;;;21.50;47.38;100132.47;5009819;28;20037;-71
2021/08/14 08:33:01;;;;;;;9.07;5.13;;;;;;;21.65;47.35;100128.38;5010066;28;20037;-72
2021/08/14 08:35:27;;;;;;;11.75;5.35;;;;;;;21.76;46.86;100130.13;5009131;28;20155;-72
2021/08/14 08:37:52;;;;;;;11.15;5.55;;;;;;;21.76;47.28;100124.75;5008598;28;20049;-71
2021/08/14 08:40:19;;;;;;;11.30;4.72;;;;;;;21.74;47.97;100124.03;5009009;28;20025;-71
2021/08/14 08:42:46;;;;;;;12.18;4.22;;;;;;;21.87;48.07;100118.41;5009757;28;20041;-71
2021/08/14 08:45:12;;;;;;;9.68;4.53;;;;;;;22.01;47.95;100118.00;5009951;28;20038;-70
2021/08/14 08:47:40;;;;;;;11.40;5.35;;;;;;;22.18;47.43;100113.75;5008804;28;20068;-72
2021/08/14 08:50:08;;;;;;;9.23;4.57;;;;;;;22.40;47.26;100111.78;5007947;28;20038;-71
2021/08/14 08:52:34;;;;;;;14.57;6.55;;;;;;;22.55;47.32;100106.81;5009032;28;20505;-71
2021/08/14 08:55:00;;;;;;;8.52;4.75;;;;;;;22.69;46.46;100098.25;5009400;28;20044;-71
2021/08/14 08:57:25;;;;;;;15.25;6.35;;;;;;;22.67;46.20;100092.22;5008541;28;20034;-72
2021/08/14 08:59:51;;;;;;;11.18;4.15;;;;;;;22.63;46.56;100090.78;5009397;28;20066;-71
2021/08/14 09:02:31;;;;;;;11.95;3.95;;;;;;;22.66;45.62;100093.19;5008447;28;20112;-71
2021/08/14 09:05:15;;;;;;;10.82;4.15;;;;;;;22.90;44.63;100098.91;5010130;28;20113;-72
2021/08/14 09:07:42;;;;;;;11.40;4.60;;;;;;;23.11;43.64;100095.16;5007506;28;20030;-72
2021/08/14 09:10:25;;;;;;;8.93;4.57;;;;;;;23.25;43.18;100093.81;4989284;28;20513;-72
2021/08/14 09:12:50;;;;;;;13.50;4.60;;;;;;;23.33;42.56;100099.28;4989731;28;20410;-72
2021/08/14 09:15:30;;;;;;;13.63;4.25;;;;;;;23.42;42.62;100108.31;4989746;28;20037;-72
2021/08/14 09:18:05;;;;;;;9.65;4.95;;;;;;;23.56;42.35;100114.03;4988686;28;20042;-72
2021/08/14 09:20:42;;;;;;;8.90;4.38;;;;;;;23.84;41.79;100116.72;4989611;28;20030;-72
2021/08/14 09:23:13;;;;;;;7.93;3.70;;;;;;;24.09;40.72;100117.78;4988275;28;20030;-72
2021/08/14 09:25:49;;;;;;;7.57;4.32;;;;;;;24.40;40.04;100112.00;4998601;28;20191;-72
2021/08/14 09:28:16;;;;;;;8.98;4.22;;;;;;;24.69;39.57;100103.63;5005062;28;20554;-72
2021/08/14 09:30:45;;;;;;;8.82;4.00;;;;;;;25.14;38.62;100107.06;5008847;28;20650;-72
2021/08/14 09:33:13;;;;;;;8.05;3.55;;;;;;;25.97;38.13;100104.50;5009113;28;20042;-72
2021/08/14 09:35:39;;;;;;;14.27;5.22;;;;;;;26.84;35.72;100099.38;5009299;28;20180;-73
2021/08/14 09:38:08;;;;;;;10.52;4.93;;;;;;;27.53;33.88;100091.50;5010998;28;20128;-72
2021/08/14 09:40:39;;;;;;;7.40;3.92;;;;;;;28.44;32.45;100097.09;5012856;28;20030;-73
2021/08/14 09:43:05;;;;;;;10.50;4.25;;;;;;;29.00;30.85;100096.72;5011616;28;20636;-72
2021/08/14 09:45:31;;;;;;;8.20;5.43;;;;;;;29.40;30.41;100097.25;5012815;28;20030;-71
2021/08/14 09:47:56;;;;;;;7.35;4.28;;;;;;;29.85;29.76;100096.13;5011574;28;20038;-71
2021/08/14 09:50:35;;;;;;;8.05;4.53;;;;;;;30.35;28.78;100085.31;5012579;28;20041;-70
2021/08/14 09:53:17;;;;;;;7.25;4.57;;;;;;;30.73;28.09;100083.06;5012298;28;20033;-71
2021/08/14 09:55:45;;;;;;;7.35;4.47;;;;;;;31.06;27.53;100081.59;5012843;28;20034;-71
2021/08/14 09:58:14;;;;;;;10.00;4.53;;;;;;;31.26;26.65;100088.00;5010130;28;20501;-70
2021/08/14 10:00:41;;;;;;;8.30;4.07;;;;;;;31.13;25.75;100077.84;5011280;28;20363;-72
2021/08/14 10:03:07;;;;;;;12.55;3.83;;;;;;;31.46;25.71;100079.09;5012019;28;20053;-72
2021/08/14 10:05:34;;;;;;;9.85;4.47;;;;;;;31.56;25.83;100079.53;5012683;28;20040;-71
2021/08/14 10:08:00;;;;;;;6.20;4.07;;;;;;;31.72;25.09;100078.31;5011641;28;20040;-72
2021/08/14 10:10:27;;;;;;;28.10;4.80;;;;;;;31.82;25.73;100078.72;5012057;28;20041;-72
2021/08/14 10:12:53;;;;;;;8.57;4.60;;;;;;;31.80;24.75;100080.81;5011047;28;20034;-69
2021/08/14 10:15:18;;;;;;;7.88;4.80;;;;;;;31.92;24.67;100076.44;5010211;28;20037;-71
2021/08/14 10:17:44;;;;;;;9.75;4.13;;;;;;;32.19;24.67;100071.88;5010755;28;20547;-72
2021/08/14 10:20:10;;;;;;;6.53;3.30;;;;;;;32.15;23.90;100072.53;5012149;28;20034;-72
2021/08/14 10:22:35;;;;;;;9.75;4.20;;;;;;;32.22;24.48;100073.34;5012463;28;20490;-72
2021/08/14 10:25:01;;;;;;;9.65;4.57;;;;;;;32.20;24.76;100068.09;4998259;28;20053;-71
2021/08/14 10:27:26;;;;;;;7.50;3.88;;;;;;;32.17;24.32;100067.66;4991800;28;20030;-72
2021/08/14 10:29:58;;;;;;;11.60;5.22;;;;;;;32.27;23.85;100060.75;4991880;28;20112;-72
2021/08/14 10:32:29;;;;;;;6.53;4.07;;;;;;;32.39;23.64;100058.25;4991297;28;20030;-72
2021/08/14 10:35:15;;;;;;;8.40;3.95;;;;;;;32.54;23.01;100058.03;5024441;28;20148;-72
2021/08/14 10:37:42;;;;;;;7.32;3.35;;;;;;;32.52;23.26;100060.13;5010853;28;20084;-72
2021/08/14 10:40:09;;;;;;;8.98;4.38;;;;;;;32.59;23.15;100047.31;5011704;28;20087;-72
2021/08/14 10:42:58;;;;;;;8.75;4.28;;;;;;;32.48;23.16;100051.50;5011561;28;20041;-71
2021/08/14 10:45:36;;;;;;;14.23;3.63;;;;;;;32.51;23.07;100047.53;5011052;28;20034;-70
2021/08/14 10:48:04;;;;;;;6.43;3.47;;;;;;;32.36;22.88;100047.72;5008081;28;20046;-72
2021/08/14 10:50:29;;;;;;;5.70;3.80;;;;;;;32.29;23.86;100046.88;5010779;28;20036;-72
2021/08/14 10:53:13;;;;;;;5.20;3.43;;;;;;;32.08;23.30;100047.97;5011639;28;20125;-71
2021/08/14 10:55:41;;;;;;;8.55;4.13;;;;;;;31.67;24.05;100044.31;5011470;28;20058;-72
2021/08/14 10:58:36;;;;;;;5.47;3.22;;;;;;;30.94;24.68;100043.19;5010595;28;20030;-71
2021/08/14 11:01:04;;;;;;;9.20;3.67;;;;;;;30.28;26.14;100049.06;4991629;28;20041;-71
2021/08/14 11:03:32;;;;;;;6.97;3.42;;;;;;;29.96;26.92;100034.97;4990171;28;20553;-71
2021/08/14 11:06:24;;;;;;;6.97;3.65;;;;;;;29.43;27.97;100034.41;4991191;28;20541;-71
2021/08/14 11:08:49;;;;;;;8.25;3.80;;;;;;;28.99;28.48;100038.00;4991060;28;20054;-71
2021/08/14 11:11:36;;;;;;;9.85;4.05;;;;;;;28.60;28.82;100031.00;4991617;28;20038;-71
2021/08/14 11:14:07;;;;;;;8.82;4.55;;;;;;;28.42;29.61;100028.63;4992666;28;20042;-73
2021/08/14 11:16:56;;;;;;;6.00;3.40;;;;;;;28.24;29.86;100027.13;4988695;28;20038;-71